KWRI/WRI METAR and TAF weather

Enter ICAO airport designator
Station Type Date Time Source
KWRI METAR 2020/08/05 23:56 UTC NOAA

KWRI 052356Z AUTO 30006KT 10SM CLR 27/17 A3002 RMK AO2 SLP164 T02740172 10317 20274 53001 $


Station Type Date Time Source
KWRI Decoded METAR 2020/08/05 23:56 UTC NOAA

Mcguire Air Force Base, NJ, United States (KWRI) 40-01N 074-36W
Aug 05, 2020 - 07:56 PM EDT / 2020.08.05 2356 UTC
Wind: from the WNW (300 degrees) at 7 MPH (6 KT):0
Visibility: 10 mile(s):0
Sky conditions: clear
Temperature: 81.3 F (27.4 C)
Dew Point: 63.0 F (17.2 C)
Relative Humidity: 53%
Pressure (altimeter): 30.02 in. Hg (1016 hPa)
Pressure tendency: 0.00 inches (0.1 hPa) higher than three hours ago
ob: KWRI 052356Z AUTO 30006KT 10SM CLR 27/17 A3002 RMK AO2 SLP164 T02740172 10317 20274 53001
cycle: 0

Station Type Date Time Source
KWRI TAF 2020/08/05 18:06 UTC NOAA

TAF KWRI 051800Z 0518/0624 27010KT 9999 FEW050 QNH3001INS
BECMG 0600/0601 VRB05KT 9999 SCT035 BKN250 QNH3005INS
BECMG 0611/0612 03009KT 9999 BKN035 OVC250 QNH3012INS
BECMG 0614/0615 06009KT 9000 -SHRA BKN030 QNH3010INS
BECMG 0620/0621 10004KT 9000 -SHRA OVC020 QNH3006INS TX32/0520Z TN19/0610Z

Example: see airport list